Time;durP1;ratioP1;P1;durP2;ratioP2;P2;SDS_P1;SDS_P2;PMS_P1;PMS_P2;Temp;Humidity;BMP_temperature;BMP_pressure;BME280_temperature;BME280_humidity;BME280_pressure;Samples;Min_cycle;Max_cycle;Signal;HPM_P1;HPM_P2
2022/05/29 00:00:08;;;;;;;6.90;2.73;;;;;;;;;;5052753;28;20224;-71
2022/05/29 00:02:33;;;;;;;6.90;3.43;;;;;;;;;;5052165;28;20355;-71
2022/05/29 00:04:58;;;;;;;10.73;3.03;;;;;;;;;;5051807;28;20699;-72
2022/05/29 00:07:23;;;;;;;9.77;3.60;;;;;;;;;;5044123;28;20181;-72
2022/05/29 00:09:49;;;;;;;6.27;3.30;;;;;;;;;;5050587;28;20698;-72
2022/05/29 00:12:15;;;;;;;10.67;3.40;;;;;;;;;;5051637;28;20185;-72
2022/05/29 00:14:41;;;;;;;9.83;3.17;;;;;;;;;;5050532;28;20194;-72
2022/05/29 00:17:07;;;;;;;9.73;3.10;;;;;;;;;;5052224;28;20188;-72
2022/05/29 00:19:32;;;;;;;7.47;3.43;;;;;;;;;;5050247;28;20178;-72
2022/05/29 00:21:57;;;;;;;9.63;3.53;;;;;;;;;;5052938;28;20193;-71
2022/05/29 00:24:23;;;;;;;9.57;3.40;;;;;;;;;;5051542;28;20744;-72
2022/05/29 00:26:48;;;;;;;6.23;2.87;;;;;;;;;;5053173;28;20243;-72
2022/05/29 00:29:13;;;;;;;6.97;3.20;;;;;;;;;;5051221;28;20174;-72
2022/05/29 00:31:38;;;;;;;8.23;3.50;;;;;;;;;;5050852;28;20240;-72
2022/05/29 00:34:03;;;;;;;10.03;3.37;;;;;;;;;;5051934;28;20716;-72
2022/05/29 00:36:32;;;;;;;10.33;3.17;;;;;;;;;;5050958;28;20189;-72
2022/05/29 00:38:57;;;;;;;8.17;3.23;;;;;;;;;;5049839;28;20665;-71
2022/05/29 00:41:25;;;;;;;8.17;3.17;;;;;;;;;;5051149;28;20204;-72
2022/05/29 00:44:09;;;;;;;7.70;3.23;;;;;;;;;;5051509;28;20573;-72
2022/05/29 00:46:34;;;;;;;7.33;3.53;;;;;;;;;;5051063;28;20203;-73
2022/05/29 00:49:04;;;;;;;10.33;3.57;;;;;;;;;;5045248;28;20546;-71
2022/05/29 00:51:29;;;;;;;6.70;3.50;;;;;;;;;;5048940;28;20586;-73
2022/05/29 00:53:55;;;;;;;11.33;4.00;;;;;;;;;;5051121;28;20270;-73
2022/05/29 00:56:20;;;;;;;9.33;3.43;;;;;;;;;;5044875;28;20177;-73
2022/05/29 00:58:45;;;;;;;8.73;3.40;;;;;;;;;;5050828;28;20178;-73
2022/05/29 01:01:11;;;;;;;6.20;3.10;;;;;;;;;;5041357;28;20555;-71
2022/05/29 01:03:36;;;;;;;5.53;3.33;;;;;;;;;;5039776;28;20693;-71
2022/05/29 01:06:01;;;;;;;8.90;3.47;;;;;;;;;;5048127;28;20255;-73
2022/05/29 01:08:30;;;;;;;6.17;3.00;;;;;;;;;;5050810;28;20201;-72
2022/05/29 01:10:56;;;;;;;11.07;4.27;;;;;;;;;;5032838;28;20185;-73
2022/05/29 01:13:25;;;;;;;5.70;3.60;;;;;;;;;;5044671;28;20577;-72
2022/05/29 01:15:56;;;;;;;8.37;3.00;;;;;;;;;;5044199;28;20177;-72
2022/05/29 01:18:21;;;;;;;6.87;3.17;;;;;;;;;;5051472;28;20181;-72
2022/05/29 01:20:49;;;;;;;7.80;3.10;;;;;;;;;;5051453;28;20614;-72
2022/05/29 01:23:21;;;;;;;6.30;2.83;;;;;;;;;;5050942;28;20625;-72
2022/05/29 01:26:00;;;;;;;4.67;3.47;;;;;;;;;;5050399;28;20679;-72
2022/05/29 01:28:46;;;;;;;7.33;3.20;;;;;;;;;;5048390;28;20264;-72
2022/05/29 01:31:14;;;;;;;8.47;3.13;;;;;;;;;;5051061;28;20194;-71
2022/05/29 01:33:39;;;;;;;10.13;3.03;;;;;;;;;;5038951;28;20205;-71
2022/05/29 01:36:05;;;;;;;7.17;3.20;;;;;;;;;;5050606;28;20181;-72
2022/05/29 01:38:49;;;;;;;9.43;3.50;;;;;;;;;;5049476;28;20188;-71
2022/05/29 01:41:19;;;;;;;8.13;4.53;;;;;;;;;;5049453;28;20315;-73
2022/05/29 01:43:52;;;;;;;3.50;3.00;;;;;;;;;;5050693;28;20202;-71
2022/05/29 01:46:22;;;;;;;8.43;3.10;;;;;;;;;;5030558;28;20169;-73
2022/05/29 01:48:47;;;;;;;6.30;3.23;;;;;;;;;;5050830;28;20184;-74
2022/05/29 01:51:20;;;;;;;8.93;3.17;;;;;;;;;;5050900;28;20181;-72
2022/05/29 01:53:48;;;;;;;6.90;3.10;;;;;;;;;;5049970;28;20217;-73
2022/05/29 01:56:24;;;;;;;10.90;2.67;;;;;;;;;;5049065;28;20181;-72
2022/05/29 01:59:03;;;;;;;9.30;2.90;;;;;;;;;;5037779;28;20223;-72
2022/05/29 02:01:30;;;;;;;7.27;2.40;;;;;;;;;;5050787;28;20297;-71
2022/05/29 02:03:57;;;;;;;9.37;3.10;;;;;;;;;;5050941;28;20192;-72
2022/05/29 02:06:24;;;;;;;8.43;2.80;;;;;;;;;;5050639;28;20169;-72
2022/05/29 02:09:02;;;;;;;9.63;2.73;;;;;;;;;;5049561;28;20561;-73
2022/05/29 02:11:28;;;;;;;8.77;3.80;;;;;;;;;;5048142;28;20177;-73
2022/05/29 02:13:59;;;;;;;9.10;3.13;;;;;;;;;;5033575;28;20209;-72
2022/05/29 02:16:30;;;;;;;5.50;2.63;;;;;;;;;;5050477;28;20208;-73
2022/05/29 02:19:02;;;;;;;7.63;3.27;;;;;;;;;;5049654;28;20235;-73
2022/05/29 02:21:27;;;;;;;9.40;2.67;;;;;;;;;;5049660;28;20308;-73
2022/05/29 02:23:54;;;;;;;6.38;3.03;;;;;;;;;;5037628;28;20269;-72
2022/05/29 02:26:23;;;;;;;9.53;2.70;;;;;;;;;;5034324;28;20269;-72
2022/05/29 02:28:52;;;;;;;6.83;3.17;;;;;;;;;;5049661;28;20191;-73
2022/05/29 02:31:23;;;;;;;7.97;2.83;;;;;;;;;;5050144;28;20227;-72
2022/05/29 02:33:58;;;;;;;6.23;2.73;;;;;;;;;;5051038;28;20285;-73
2022/05/29 02:36:30;;;;;;;6.33;3.27;;;;;;;;;;5050412;28;20303;-73
2022/05/29 02:38:55;;;;;;;5.93;2.73;;;;;;;;;;5049762;28;20726;-72
2022/05/29 02:41:24;;;;;;;4.63;2.77;;;;;;;;;;5052576;28;20201;-73
2022/05/29 02:44:01;;;;;;;9.70;3.47;;;;;;;;;;5054627;28;20438;-72
2022/05/29 02:46:30;;;;;;;11.03;2.90;;;;;;;;;;5053570;28;20256;-72
2022/05/29 02:49:06;;;;;;;7.20;2.50;;;;;;;;;;5051037;28;20182;-72
2022/05/29 02:51:37;;;;;;;4.30;2.73;;;;;;;;;;5053855;28;20657;-72
2022/05/29 02:54:02;;;;;;;7.10;2.40;;;;;;;;;;5044119;28;20633;-72
2022/05/29 02:56:27;;;;;;;5.83;2.80;;;;;;;;;;5052402;28;20208;-72
2022/05/29 02:58:55;;;;;;;13.90;4.93;;;;;;;;;;5054015;28;20658;-72
2022/05/29 03:01:20;;;;;;;7.80;3.00;;;;;;;;;;5053673;28;20207;-72
2022/05/29 03:03:52;;;;;;;6.13;2.77;;;;;;;;;;5052487;28;20208;-72
2022/05/29 03:06:23;;;;;;;9.27;3.17;;;;;;;;;;5053638;28;20947;-72
2022/05/29 03:09:12;;;;;;;4.47;3.00;;;;;;;;;;5053446;28;20185;-73
2022/05/29 03:11:42;;;;;;;9.43;3.30;;;;;;;;;;5039678;28;20190;-73
2022/05/29 03:14:16;;;;;;;4.53;2.90;;;;;;;;;;5042043;28;20230;-73
2022/05/29 03:16:50;;;;;;;6.23;2.77;;;;;;;;;;5053507;28;20427;-73
2022/05/29 03:19:30;;;;;;;5.67;2.70;;;;;;;;;;5050075;28;20789;-74
2022/05/29 03:22:04;;;;;;;8.07;3.37;;;;;;;;;;5028966;28;20216;-74
2022/05/29 03:24:35;;;;;;;8.27;2.83;;;;;;;;;;5038771;28;20280;-72
2022/05/29 03:27:04;;;;;;;6.30;3.10;;;;;;;;;;5041447;28;20178;-73
2022/05/29 03:29:35;;;;;;;4.20;2.90;;;;;;;;;;5052563;28;20174;-72
2022/05/29 03:32:01;;;;;;;7.30;2.87;;;;;;;;;;5053414;28;20687;-72
2022/05/29 03:34:26;;;;;;;6.90;3.73;;;;;;;;;;5052309;28;20232;-72
2022/05/29 03:36:51;;;;;;;11.03;3.37;;;;;;;;;;5053663;28;20173;-72
2022/05/29 03:39:17;;;;;;;5.00;2.30;;;;;;;;;;5048198;28;20205;-73
2022/05/29 03:41:46;;;;;;;6.97;2.40;;;;;;;;;;5050160;28;20213;-72
2022/05/29 03:44:12;;;;;;;6.80;2.10;;;;;;;;;;5053242;28;20201;-72
2022/05/29 03:46:42;;;;;;;5.33;2.27;;;;;;;;;;5050442;28;20236;-72
2022/05/29 03:49:08;;;;;;;5.73;1.77;;;;;;;;;;5039063;28;20182;-73
2022/05/29 03:51:34;;;;;;;5.30;2.63;;;;;;;;;;5052659;28;20186;-73
2022/05/29 03:54:00;;;;;;;6.87;2.50;;;;;;;;;;5053671;28;20221;-72
2022/05/29 03:56:25;;;;;;;5.93;2.23;;;;;;;;;;5052792;28;20182;-72
2022/05/29 03:58:50;;;;;;;5.20;1.90;;;;;;;;;;5051211;28;20565;-73
2022/05/29 04:01:15;;;;;;;4.57;2.13;;;;;;;;;;5052560;28;20640;-73
2022/05/29 04:03:40;;;;;;;9.17;2.73;;;;;;;;;;5053371;28;20206;-73
2022/05/29 04:06:06;;;;;;;3.20;1.97;;;;;;;;;;5051420;28;20232;-73
2022/05/29 04:14:00;;;;;;;3.90;2.10;;;;;;;;;;5042402;28;20278;-73
2022/05/29 04:16:25;;;;;;;6.47;2.10;;;;;;;;;;5052074;28;20618;-73
2022/05/29 04:18:50;;;;;;;4.57;2.00;;;;;;;;;;5051691;28;20192;-72
2022/05/29 04:21:15;;;;;;;2.97;2.37;;;;;;;;;;5052326;28;20205;-73
2022/05/29 04:23:40;;;;;;;5.17;2.63;;;;;;;;;;5034722;28;20267;-73
2022/05/29 04:26:06;;;;;;;6.00;2.17;;;;;;;;;;5052346;28;20745;-72
2022/05/29 04:28:31;;;;;;;7.03;3.13;;;;;;;;;;5050919;28;20186;-73
2022/05/29 04:30:57;;;;;;;6.23;2.67;;;;;;;;;;5052075;28;20221;-73
2022/05/29 04:33:22;;;;;;;3.77;2.47;;;;;;;;;;5051715;28;20201;-73
2022/05/29 04:35:49;;;;;;;5.37;2.50;;;;;;;;;;5050783;28;20182;-73
2022/05/29 04:38:14;;;;;;;5.40;2.70;;;;;;;;;;5049259;28;20561;-72
2022/05/29 04:40:40;;;;;;;7.60;2.70;;;;;;;;;;5049857;28;20185;-72
2022/05/29 04:43:06;;;;;;;4.87;2.50;;;;;;;;;;5051229;28;20204;-72
2022/05/29 04:45:31;;;;;;;8.37;2.60;;;;;;;;;;5051832;28;20181;-72
2022/05/29 04:47:56;;;;;;;5.43;3.87;;;;;;;;;;5051172;28;20182;-72
2022/05/29 04:50:21;;;;;;;9.70;3.17;;;;;;;;;;5048102;28;20201;-71
2022/05/29 04:52:47;;;;;;;4.67;2.47;;;;;;;;;;5050887;28;20213;-73
2022/05/29 04:55:12;;;;;;;4.43;2.53;;;;;;;;;;5062959;22;20223;-71
2022/05/29 04:57:37;;;;;;;6.53;2.97;;;;;;;;;;5049650;28;20197;-71
2022/05/29 05:00:05;;;;;;;7.90;2.30;;;;;;;;;;5050212;28;20549;-71
2022/05/29 05:02:31;;;;;;;4.23;2.27;;;;;;;;;;5048736;28;20228;-71
2022/05/29 05:04:56;;;;;;;6.73;2.30;;;;;;;;;;5051231;28;20193;-71
2022/05/29 05:07:21;;;;;;;5.13;2.17;;;;;;;;;;5051862;28;20179;-71
2022/05/29 05:09:46;;;;;;;6.67;2.33;;;;;;;;;;5050194;28;20554;-71
2022/05/29 05:12:12;;;;;;;8.03;2.57;;;;;;;;;;5051508;28;20180;-71
2022/05/29 05:14:37;;;;;;;8.43;2.27;;;;;;;;;;5049696;28;20209;-71
2022/05/29 05:17:02;;;;;;;4.50;2.20;;;;;;;;;;5050948;28;20178;-71
2022/05/29 05:19:28;;;;;;;3.13;2.10;;;;;;;;;;5049474;28;20185;-71
2022/05/29 05:21:53;;;;;;;4.40;1.87;;;;;;;;;;5050710;28;20185;-71
2022/05/29 05:24:18;;;;;;;4.13;2.47;;;;;;;;;;5050664;28;20559;-72
2022/05/29 05:26:44;;;;;;;4.00;2.00;;;;;;;;;;5050885;28;20182;-71
2022/05/29 05:29:09;;;;;;;10.50;3.60;;;;;;;;;;5034753;28;20206;-71
2022/05/29 05:31:34;;;;;;;5.80;2.10;;;;;;;;;;5032139;28;20178;-71
2022/05/29 05:34:00;;;;;;;5.90;1.70;;;;;;;;;;5051525;28;20278;-71
2022/05/29 05:36:25;;;;;;;5.13;1.90;;;;;;;;;;5049788;28;20652;-71
2022/05/29 05:38:51;;;;;;;4.77;1.87;;;;;;;;;;5047490;28;20166;-71
2022/05/29 05:41:16;;;;;;;6.07;1.73;;;;;;;;;;5047460;28;20288;-71
2022/05/29 05:43:42;;;;;;;7.43;2.47;;;;;;;;;;5051077;28;20782;-71
2022/05/29 05:46:08;;;;;;;8.17;2.53;;;;;;;;;;5049055;28;20176;-71
2022/05/29 05:48:33;;;;;;;5.43;3.23;;;;;;;;;;5050443;28;20173;-71
2022/05/29 05:50:59;;;;;;;7.77;2.73;;;;;;;;;;5050266;28;20185;-71
2022/05/29 05:53:24;;;;;;;4.30;2.63;;;;;;;;;;5048875;28;20628;-71
2022/05/29 05:55:49;;;;;;;4.27;2.30;;;;;;;;;;5050542;28;20196;-71
2022/05/29 05:58:15;;;;;;;4.87;2.10;;;;;;;;;;5048196;28;20182;-71
2022/05/29 06:00:42;;;;;;;6.07;2.10;;;;;;;;;;5046842;28;20264;-71
2022/05/29 06:03:07;;;;;;;8.17;2.70;;;;;;;;;;5049203;28;20269;-71
2022/05/29 06:05:33;;;;;;;5.97;2.70;;;;;;;;;;5049791;28;20268;-71
2022/05/29 06:07:58;;;;;;;3.93;1.97;;;;;;;;;;5050270;28;20207;-71
2022/05/29 06:10:23;;;;;;;7.77;2.70;;;;;;;;;;5048837;28;20181;-71
2022/05/29 06:12:48;;;;;;;6.40;2.27;;;;;;;;;;5048647;28;20315;-71
2022/05/29 06:15:13;;;;;;;5.10;2.00;;;;;;;;;;5047799;28;20201;-71
2022/05/29 06:17:38;;;;;;;6.40;2.57;;;;;;;;;;5048482;28;20181;-71
2022/05/29 06:20:06;;;;;;;4.88;2.05;;;;;;;;;;5049536;28;20549;-71
2022/05/29 06:22:34;;;;;;;5.10;2.58;;;;;;;;;;5049996;28;20204;-72
2022/05/29 06:24:59;;;;;;;5.50;1.80;;;;;;;;;;5050374;28;20254;-72
2022/05/29 06:27:25;;;;;;;4.70;1.83;;;;;;;;;;5050192;28;20260;-72
2022/05/29 06:29:51;;;;;;;10.48;2.97;;;;;;;;;;5034180;28;20430;-72
2022/05/29 06:32:16;;;;;;;5.32;1.92;;;;;;;;;;5049087;28;20188;-71
2022/05/29 06:34:41;;;;;;;4.97;2.20;;;;;;;;;;5035779;28;20200;-71
2022/05/29 06:37:07;;;;;;;6.97;1.83;;;;;;;;;;5048072;28;20192;-72
2022/05/29 06:39:36;;;;;;;4.13;1.83;;;;;;;;;;5045657;28;20916;-72
2022/05/29 06:42:01;;;;;;;5.32;1.35;;;;;;;;;;5036316;28;20216;-73
2022/05/29 06:44:26;;;;;;;7.25;2.00;;;;;;;;;;5038579;28;20201;-72
2022/05/29 06:46:52;;;;;;;5.60;1.70;;;;;;;;;;5050789;28;20658;-72
2022/05/29 06:49:18;;;;;;;5.47;1.98;;;;;;;;;;5046984;28;20271;-72
2022/05/29 06:51:43;;;;;;;6.57;2.42;;;;;;;;;;5050719;28;20182;-72
2022/05/29 06:54:08;;;;;;;5.65;1.98;;;;;;;;;;5048380;28;20709;-72
2022/05/29 06:56:33;;;;;;;7.32;1.95;;;;;;;;;;5049541;28;20174;-71
2022/05/29 06:58:59;;;;;;;6.40;2.13;;;;;;;;;;5050104;28;20165;-72
2022/05/29 07:07:00;;;;;;;7.20;1.70;;;;;;;;;;5043019;28;20315;-72
2022/05/29 07:09:26;;;;;;;7.82;2.28;;;;;;;;;;5041489;28;20227;-72
2022/05/29 07:11:54;;;;;;;6.15;1.88;;;;;;;;;;5045475;28;20184;-72
2022/05/29 07:14:19;;;;;;;4.53;1.40;;;;;;;;;;5041842;28;20698;-72
2022/05/29 07:16:46;;;;;;;4.22;1.05;;;;;;;;;;5039631;28;20194;-72
2022/05/29 07:19:11;;;;;;;2.88;1.10;;;;;;;;;;5045922;28;20197;-72
2022/05/29 07:21:37;;;;;;;2.60;1.00;;;;;;;;;;5036557;28;20193;-72
2022/05/29 07:24:03;;;;;;;2.90;0.80;;;;;;;;;;5038957;28;20199;-72
2022/05/29 07:26:28;;;;;;;2.15;0.95;;;;;;;;;;5051651;28;20181;-72
2022/05/29 07:28:53;;;;;;;3.87;1.10;;;;;;;;;;5050837;28;20649;-72
2022/05/29 07:31:18;;;;;;;1.85;0.95;;;;;;;;;;5052302;28;20457;-72
2022/05/29 07:33:44;;;;;;;1.60;0.80;;;;;;;;;;5041713;28;20193;-72
2022/05/29 07:36:09;;;;;;;3.83;1.20;;;;;;;;;;5050788;28;20224;-72
2022/05/29 07:38:35;;;;;;;2.88;1.23;;;;;;;;;;5049739;28;20442;-72
2022/05/29 07:41:00;;;;;;;3.22;0.90;;;;;;;;;;5052548;28;20672;-72
2022/05/29 07:43:26;;;;;;;2.08;0.98;;;;;;;;;;5052176;28;20228;-72
2022/05/29 07:45:56;;;;;;;3.15;0.60;;;;;;;;;;5048528;28;20170;-71
2022/05/29 07:48:25;;;;;;;2.88;0.90;;;;;;;;;;5047248;28;20602;-72
2022/05/29 07:50:51;;;;;;;4.50;1.00;;;;;;;;;;5048327;28;20604;-71
2022/05/29 07:53:17;;;;;;;3.25;0.82;;;;;;;;;;5053604;28;20166;-72
2022/05/29 07:55:43;;;;;;;1.88;0.50;;;;;;;;;;5052373;28;20197;-71
2022/05/29 07:58:08;;;;;;;5.22;0.88;;;;;;;;;;5050883;28;20170;-72
2022/05/29 08:00:34;;;;;;;4.35;1.30;;;;;;;;;;5049487;28;20196;-71
2022/05/29 08:03:00;;;;;;;2.35;0.88;;;;;;;;;;5045858;28;20239;-71
2022/05/29 08:05:25;;;;;;;3.53;0.88;;;;;;;;;;5052128;28;20232;-71
2022/05/29 08:07:51;;;;;;;5.07;1.20;;;;;;;;;;5051367;28;20255;-71
2022/05/29 08:10:17;;;;;;;2.80;1.45;;;;;;;;;;5051943;28;20178;-71
2022/05/29 08:12:43;;;;;;;3.67;0.88;;;;;;;;;;5053214;28;20823;-71
2022/05/29 08:15:09;;;;;;;3.20;0.90;;;;;;;;;;5053373;28;20213;-71
2022/05/29 08:17:35;;;;;;;2.70;1.08;;;;;;;;;;5053061;28;20196;-71
2022/05/29 08:20:00;;;;;;;4.82;1.30;;;;;;;;;;5053141;28;20636;-71
2022/05/29 08:22:25;;;;;;;5.47;1.27;;;;;;;;;;5052091;28;20686;-71
2022/05/29 08:31:04;;;;;;;5.35;1.10;;;;;;;;;;5051070;28;20326;-71
2022/05/29 08:33:06;;;;;;;4.72;1.40;;;;;;;;;;5036403;28;20892;-71
2022/05/29 08:35:32;;;;;;;3.00;1.27;;;;;;;;;;5050646;28;20296;-71
2022/05/29 08:37:58;;;;;;;5.18;1.50;;;;;;;;;;5046462;28;20622;-71
2022/05/29 08:40:24;;;;;;;5.15;1.27;;;;;;;;;;5041905;28;20185;-72
2022/05/29 08:42:49;;;;;;;5.18;1.33;;;;;;;;;;5052517;28;20585;-72
2022/05/29 08:45:15;;;;;;;4.00;1.52;;;;;;;;;;5053652;28;20707;-71
2022/05/29 08:47:41;;;;;;;5.28;1.38;;;;;;;;;;5049184;28;20174;-70
2022/05/29 08:50:08;;;;;;;6.38;1.25;;;;;;;;;;5053874;28;20169;-70
2022/05/29 08:52:49;;;;;;;2.85;1.00;;;;;;;;;;5054411;28;20182;-71
2022/05/29 08:55:20;;;;;;;3.10;0.90;;;;;;;;;;5049891;28;20641;-71
2022/05/29 08:57:52;;;;;;;5.07;0.80;;;;;;;;;;5048748;28;20291;-70
2022/05/29 09:00:37;;;;;;;3.38;0.90;;;;;;;;;;5051043;28;20186;-70
2022/05/29 09:03:08;;;;;;;2.00;0.75;;;;;;;;;;5045283;28;20201;-71
2022/05/29 09:05:45;;;;;;;5.78;1.50;;;;;;;;;;5050224;28;20181;-70
2022/05/29 09:08:21;;;;;;;5.22;1.10;;;;;;;;;;5052295;28;20318;-71
2022/05/29 09:10:47;;;;;;;3.33;1.65;;;;;;;;;;5051061;28;20181;-70
2022/05/29 09:13:15;;;;;;;3.53;0.88;;;;;;;;;;5052274;28;20169;-70
2022/05/29 09:15:45;;;;;;;5.35;1.08;;;;;;;;;;5048189;28;20185;-70
2022/05/29 09:18:24;;;;;;;2.92;1.20;;;;;;;;;;5050697;28;20205;-70
2022/05/29 09:20:49;;;;;;;7.20;1.67;;;;;;;;;;5045379;28;20744;-71
2022/05/29 09:23:20;;;;;;;6.18;1.38;;;;;;;;;;5048783;28;20173;-70
2022/05/29 09:25:45;;;;;;;5.38;1.40;;;;;;;;;;5050263;28;20789;-70
2022/05/29 09:28:10;;;;;;;3.65;1.95;;;;;;;;;;5045956;28;20173;-71
2022/05/29 09:30:36;;;;;;;4.07;1.08;;;;;;;;;;5047789;28;20177;-72
2022/05/29 09:33:04;;;;;;;3.53;0.95;;;;;;;;;;5050934;28;20169;-70
2022/05/29 09:35:29;;;;;;;1.90;0.55;;;;;;;;;;5048855;28;20216;-70
2022/05/29 09:38:03;;;;;;;1.83;0.40;;;;;;;;;;5044296;28;20177;-70
2022/05/29 09:40:31;;;;;;;1.20;0.50;;;;;;;;;;5033638;28;20535;-70
2022/05/29 09:42:57;;;;;;;2.83;0.50;;;;;;;;;;5032856;28;20201;-70
2022/05/29 09:45:24;;;;;;;2.17;0.40;;;;;;;;;;5046388;28;20204;-70
2022/05/29 09:50:42;;;;;;;2.67;0.47;;;;;;;;;;5047907;28;20247;-70
2022/05/29 09:53:09;;;;;;;1.13;0.25;;;;;;;;;;5047913;28;20181;-70
2022/05/29 09:55:36;;;;;;;1.27;0.38;;;;;;;;;;5048407;28;20276;-70
2022/05/29 09:58:03;;;;;;;2.72;0.70;;;;;;;;;;5046975;28;20189;-71
2022/05/29 10:00:51;;;;;;;1.15;0.40;;;;;;;;;;5048512;28;20682;-71
2022/05/29 10:03:30;;;;;;;1.52;0.50;;;;;;;;;;5049678;28;20181;-71
2022/05/29 10:06:07;;;;;;;2.17;0.50;;;;;;;;;;5042303;28;20205;-71
2022/05/29 10:08:33;;;;;;;2.70;0.55;;;;;;;;;;5047232;28;20186;-71
2022/05/29 10:11:14;;;;;;;0.70;0.22;;;;;;;;;;5048526;28;20189;-72
2022/05/29 10:13:40;;;;;;;3.75;0.70;;;;;;;;;;5048806;28;20193;-71
2022/05/29 10:16:06;;;;;;;2.63;1.08;;;;;;;;;;5047999;28;20178;-71
2022/05/29 10:18:33;;;;;;;2.67;0.93;;;;;;;;;;5049291;28;20583;-71
2022/05/29 10:21:07;;;;;;;2.55;1.13;;;;;;;;;;5050175;28;20185;-70
2022/05/29 10:23:34;;;;;;;1.45;0.60;;;;;;;;;;5048808;28;20202;-70
2022/05/29 10:26:07;;;;;;;2.58;0.60;;;;;;;;;;5049963;28;20581;-71
2022/05/29 10:28:35;;;;;;;3.63;0.73;;;;;;;;;;5013654;28;20670;-71
2022/05/29 10:31:02;;;;;;;2.80;1.25;;;;;;;;;;5048728;28;20215;-71
2022/05/29 10:33:29;;;;;;;2.45;0.73;;;;;;;;;;5043539;28;20232;-71
2022/05/29 10:35:58;;;;;;;2.53;0.90;;;;;;;;;;5042045;28;20178;-71
2022/05/29 10:38:26;;;;;;;4.07;1.00;;;;;;;;;;5046160;28;20551;-69
2022/05/29 10:40:53;;;;;;;3.08;0.63;;;;;;;;;;5030718;28;20189;-72
2022/05/29 10:43:36;;;;;;;2.42;0.82;;;;;;;;;;5048617;28;20174;-71
2022/05/29 10:46:11;;;;;;;2.70;0.85;;;;;;;;;;5044764;28;20238;-72
2022/05/29 10:48:42;;;;;;;4.07;0.85;;;;;;;;;;5037853;28;20181;-71
2022/05/29 10:51:22;;;;;;;2.45;0.80;;;;;;;;;;5031582;28;20209;-71
2022/05/29 10:54:05;;;;;;;3.53;0.90;;;;;;;;;;5042354;22;20192;-69
2022/05/29 10:56:33;;;;;;;4.80;1.35;;;;;;;;;;5049366;28;20182;-70
2022/05/29 10:59:28;;;;;;;3.15;1.25;;;;;;;;;;5048538;28;20190;-70
2022/05/29 11:05:05;;;;;;;5.07;1.17;;;;;;;;;;5044774;28;20263;-70
2022/05/29 11:07:46;;;;;;;4.45;0.82;;;;;;;;;;5051727;28;20678;-70
2022/05/29 11:10:21;;;;;;;5.97;1.33;;;;;;;;;;5046208;28;21154;-70
2022/05/29 11:13:04;;;;;;;5.10;1.50;;;;;;;;;;5050728;28;20184;-70
2022/05/29 11:15:30;;;;;;;6.90;1.33;;;;;;;;;;5051147;28;20205;-70
2022/05/29 11:18:15;;;;;;;5.10;1.70;;;;;;;;;;5033575;28;20662;-71
2022/05/29 11:20:40;;;;;;;8.25;2.20;;;;;;;;;;5050648;28;20211;-71
2022/05/29 11:23:17;;;;;;;8.80;2.53;;;;;;;;;;5051915;28;20205;-71
2022/05/29 11:25:51;;;;;;;6.20;1.95;;;;;;;;;;5051780;28;20204;-71
2022/05/29 11:28:48;;;;;;;5.80;2.05;;;;;;;;;;5049279;28;20168;-71
2022/05/29 11:31:16;;;;;;;5.20;1.42;;;;;;;;;;5001295;28;20196;-70
2022/05/29 11:34:02;;;;;;;5.75;1.50;;;;;;;;;;5033462;28;20224;-71
2022/05/29 11:36:39;;;;;;;5.38;1.55;;;;;;;;;;5034172;28;20259;-71
2022/05/29 11:39:05;;;;;;;3.72;1.17;;;;;;;;;;5045305;28;20184;-70
2022/05/29 11:41:34;;;;;;;5.63;1.40;;;;;;;;;;5050290;28;20209;-71
2022/05/29 11:44:12;;;;;;;4.55;1.52;;;;;;;;;;5020133;28;20251;-70
2022/05/29 11:52:12;;;;;;;5.45;1.25;;;;;;;;;;5029737;28;20201;-70
2022/05/29 11:54:40;;;;;;;2.45;1.20;;;;;;;;;;5031274;28;20795;-70
2022/05/29 11:57:09;;;;;;;8.65;1.45;;;;;;;;;;5011274;28;20179;-70
2022/05/29 11:59:42;;;;;;;5.20;1.33;;;;;;;;;;5029427;28;20186;-70
2022/05/29 12:02:07;;;;;;;6.18;1.63;;;;;;;;;;5031153;28;20213;-70
2022/05/29 12:04:36;;;;;;;3.60;1.45;;;;;;;;;;5031709;28;20197;-70
2022/05/29 12:07:07;;;;;;;3.95;1.30;;;;;;;;;;5029051;28;20422;-71
2022/05/29 12:09:59;;;;;;;3.22;0.82;;;;;;;;;;5034894;28;20201;-72
2022/05/29 12:12:32;;;;;;;3.33;0.75;;;;;;;;;;5026069;28;20194;-71
2022/05/29 12:15:02;;;;;;;3.25;0.82;;;;;;;;;;5033455;28;20205;-70
2022/05/29 12:17:47;;;;;;;5.53;0.80;;;;;;;;;;5026773;28;20940;-70
2022/05/29 12:20:12;;;;;;;3.83;1.10;;;;;;;;;;5028940;28;20743;-69
2022/05/29 12:22:44;;;;;;;3.45;0.82;;;;;;;;;;5029352;28;20229;-70
2022/05/29 12:25:21;;;;;;;3.05;0.68;;;;;;;;;;5028241;28;20205;-70
2022/05/29 12:27:47;;;;;;;2.30;0.80;;;;;;;;;;5029269;28;20655;-70
2022/05/29 12:30:36;;;;;;;3.75;1.00;;;;;;;;;;5030663;28;20682;-70
2022/05/29 12:33:08;;;;;;;4.00;0.80;;;;;;;;;;5019458;28;20201;-70
2022/05/29 12:35:36;;;;;;;2.33;0.90;;;;;;;;;;5026777;28;20198;-70
2022/05/29 12:38:05;;;;;;;2.65;0.82;;;;;;;;;;5011386;28;21338;-70
2022/05/29 12:40:47;;;;;;;1.23;0.55;;;;;;;;;;5027735;28;20185;-71
2022/05/29 12:43:24;;;;;;;2.25;0.60;;;;;;;;;;5029065;28;20645;-70
2022/05/29 12:45:52;;;;;;;1.80;0.60;;;;;;;;;;5030409;28;20200;-70
2022/05/29 12:48:17;;;;;;;1.80;0.70;;;;;;;;;;5029137;28;20289;-70
2022/05/29 12:50:58;;;;;;;0.70;0.40;;;;;;;;;;5029904;28;20178;-70
2022/05/29 12:53:38;;;;;;;1.55;0.90;;;;;;;;;;5026842;28;20517;-70
2022/05/29 12:56:15;;;;;;;3.33;0.60;;;;;;;;;;5011629;28;20178;-71
2022/05/29 12:58:51;;;;;;;6.72;2.05;;;;;;;;;;5028792;28;20189;-70
2022/05/29 13:01:29;;;;;;;2.38;0.85;;;;;;;;;;5027138;28;20729;-70
2022/05/29 13:03:57;;;;;;;1.55;0.50;;;;;;;;;;5029731;28;20197;-70
2022/05/29 13:06:41;;;;;;;3.45;0.70;;;;;;;;;;5031146;28;20259;-71
2022/05/29 13:09:15;;;;;;;2.67;0.88;;;;;;;;;;5033479;28;20675;-70
2022/05/29 13:11:47;;;;;;;1.58;0.40;;;;;;;;;;5032243;28;20257;-71
2022/05/29 13:14:15;;;;;;;1.45;0.60;;;;;;;;;;5036799;28;20220;-72
2022/05/29 13:16:41;;;;;;;1.77;0.82;;;;;;;;;;5024917;28;20281;-72
2022/05/29 13:21:50;;;;;;;2.83;1.13;;;;;;;;;;5028348;28;20197;-71
2022/05/29 13:24:16;;;;;;;3.83;0.80;;;;;;;;;;5027156;28;20217;-72
2022/05/29 13:26:43;;;;;;;3.08;0.65;;;;;;;;;;5028952;28;20177;-72
2022/05/29 13:29:28;;;;;;;3.40;0.90;;;;;;;;;;5026477;28;20180;-72
2022/05/29 13:32:12;;;;;;;6.70;1.10;;;;;;;;;;5027916;28;20193;-71
2022/05/29 13:34:37;;;;;;;2.75;1.15;;;;;;;;;;5028899;28;20197;-70
2022/05/29 13:37:04;;;;;;;3.80;0.85;;;;;;;;;;5027628;28;20212;-71
2022/05/29 13:39:35;;;;;;;2.47;1.38;;;;;;;;;;5029924;28;20221;-72
2022/05/29 13:42:00;;;;;;;4.53;0.93;;;;;;;;;;5029412;28;20198;-71
2022/05/29 13:44:36;;;;;;;2.95;1.48;;;;;;;;;;5030026;28;20197;-73
2022/05/29 13:47:24;;;;;;;6.57;1.08;;;;;;;;;;5029150;28;20517;-71
2022/05/29 13:50:02;;;;;;;0.95;0.50;;;;;;;;;;5028039;28;20260;-71
2022/05/29 13:52:39;;;;;;;3.13;0.80;;;;;;;;;;5028308;28;20189;-71
2022/05/29 13:55:22;;;;;;;1.55;0.63;;;;;;;;;;5005361;28;20220;-71
2022/05/29 14:06:18;;;;;;;3.55;0.98;;;;;;;;;;5027553;28;20180;-71
2022/05/29 14:08:54;;;;;;;5.35;1.30;;;;;;;;;;5029483;28;20189;-71
2022/05/29 14:11:19;;;;;;;4.93;0.85;;;;;;;;;;5028656;28;20209;-71
2022/05/29 14:13:47;;;;;;;5.40;1.30;;;;;;;;;;5032095;28;20351;-71
2022/05/29 14:16:24;;;;;;;6.65;0.80;;;;;;;;;;5028391;28;20731;-71
2022/05/29 14:19:02;;;;;;;1.58;0.55;;;;;;;;;;5027639;28;20256;-71
2022/05/29 14:21:56;;;;;;;2.25;0.50;;;;;;;;;;5028055;28;20215;-71
2022/05/29 14:24:33;;;;;;;1.27;0.60;;;;;;;;;;5028619;28;20221;-71
2022/05/29 14:27:17;;;;;;;2.28;0.50;;;;;;;;;;5007859;28;20187;-71
2022/05/29 14:29:42;;;;;;;2.20;0.52;;;;;;;;;;5025348;28;20927;-71
2022/05/29 14:32:33;;;;;;;3.00;0.50;;;;;;;;;;5030041;28;20570;-71
2022/05/29 14:35:10;;;;;;;1.92;0.60;;;;;;;;;;5031886;28;20280;-71
2022/05/29 14:37:44;;;;;;;1.58;0.65;;;;;;;;;;5032586;28;20181;-70
2022/05/29 14:40:12;;;;;;;1.92;0.57;;;;;;;;;;5033039;28;20186;-69
2022/05/29 14:42:40;;;;;;;2.33;1.00;;;;;;;;;;5031267;28;20216;-69
2022/05/29 14:45:08;;;;;;;1.45;0.70;;;;;;;;;;5031714;28;20197;-70
2022/05/29 14:47:37;;;;;;;2.30;0.85;;;;;;;;;;5031976;28;20196;-70
2022/05/29 14:50:16;;;;;;;2.22;0.70;;;;;;;;;;5031320;28;20285;-70
2022/05/29 14:52:41;;;;;;;2.97;0.63;;;;;;;;;;5031460;28;20254;-70
2022/05/29 14:55:15;;;;;;;3.25;0.90;;;;;;;;;;5035460;28;20251;-70
2022/05/29 14:57:48;;;;;;;3.05;1.10;;;;;;;;;;5030950;28;20201;-70
2022/05/29 15:00:20;;;;;;;2.05;0.60;;;;;;;;;;5030939;28;20710;-70
2022/05/29 15:02:46;;;;;;;3.83;1.20;;;;;;;;;;5039283;28;20237;-71
2022/05/29 15:05:14;;;;;;;2.67;0.80;;;;;;;;;;5032941;28;20683;-71
2022/05/29 15:10:35;;;;;;;2.47;0.60;;;;;;;;;;5033969;28;20184;-70
2022/05/29 15:13:02;;;;;;;3.17;0.60;;;;;;;;;;5035288;28;20678;-70
2022/05/29 15:15:31;;;;;;;2.33;0.82;;;;;;;;;;5030182;28;22087;-70
2022/05/29 15:18:11;;;;;;;2.35;0.65;;;;;;;;;;5029330;28;20180;-70
2022/05/29 15:26:13;;;;;;;2.13;0.80;;;;;;;;;;5031392;28;20184;-71
2022/05/29 15:28:41;;;;;;;3.35;1.17;;;;;;;;;;5012149;28;20574;-71
2022/05/29 15:31:10;;;;;;;2.53;0.90;;;;;;;;;;5030306;28;20212;-71
2022/05/29 15:33:53;;;;;;;3.47;0.70;;;;;;;;;;5034902;28;20235;-71
2022/05/29 15:36:25;;;;;;;4.18;1.17;;;;;;;;;;5030443;28;20192;-71
2022/05/29 15:38:51;;;;;;;5.30;1.15;;;;;;;;;;5031566;28;20185;-71
2022/05/29 15:41:34;;;;;;;6.70;2.43;;;;;;;;;;5030086;28;20181;-71
2022/05/29 15:44:03;;;;;;;3.92;1.13;;;;;;;;;;5012725;28;20890;-71